createdAt,value
2022-09-24T00:00:44.757Z,12.62
2022-09-24T00:03:14.568Z,12.61
2022-09-24T00:05:44.373Z,12.60
2022-09-24T00:08:13.895Z,12.60
2022-09-24T00:10:44.301Z,12.60
2022-09-24T00:13:15.587Z,12.60
2022-09-24T00:15:51.722Z,12.59
2022-09-24T00:18:22.143Z,12.59
2022-09-24T00:20:51.860Z,12.62
2022-09-24T00:23:21.437Z,12.61
2022-09-24T00:26:11.915Z,12.63
2022-09-24T00:28:41.485Z,12.63
2022-09-24T00:31:13.618Z,12.62
2022-09-24T00:33:43.389Z,12.64
2022-09-24T00:36:15.628Z,12.63
2022-09-24T00:38:45.168Z,12.64
2022-09-24T00:41:14.742Z,12.65
2022-09-24T00:43:44.541Z,12.63
2022-09-24T00:46:19.660Z,12.61
2022-09-24T00:48:50.559Z,12.60
2022-09-24T00:51:22.256Z,12.58
2022-09-24T00:53:54.339Z,12.55
2022-09-24T00:56:24.289Z,12.56
2022-09-24T00:58:57.800Z,12.57
2022-09-24T01:01:30.085Z,12.58
2022-09-24T01:04:00.216Z,12.54
2022-09-24T01:21:39.630Z,12.45
2022-09-24T01:24:34.567Z,12.39
2022-09-24T01:27:09.857Z,12.38
2022-09-24T01:29:49.900Z,12.38
2022-09-24T01:32:31.629Z,12.36
2022-09-24T01:35:06.176Z,12.39
2022-09-24T01:37:38.113Z,12.35
2022-09-24T01:40:09.921Z,12.35
2022-09-24T01:42:40.619Z,12.36
2022-09-24T01:45:14.288Z,12.40
2022-09-24T01:47:45.914Z,12.39
2022-09-24T01:50:17.238Z,12.38
2022-09-24T01:52:51.819Z,12.35
2022-09-24T01:55:24.906Z,12.38
2022-09-24T01:57:59.538Z,12.39
2022-09-24T02:00:32.457Z,12.36
2022-09-24T02:03:11.634Z,12.33
2022-09-24T02:05:45.402Z,12.32
2022-09-24T02:08:18.499Z,12.32
2022-09-24T02:10:52.965Z,12.31
2022-09-24T02:13:25.484Z,12.32
2022-09-24T02:16:01.397Z,12.31
2022-09-24T02:18:36.179Z,12.36
2022-09-24T02:21:09.289Z,12.31
2022-09-24T02:23:41.384Z,12.30
2022-09-24T02:26:11.494Z,12.28
2022-09-24T02:28:41.947Z,12.30
2022-09-24T02:31:17.128Z,12.27
2022-09-24T02:34:13.433Z,12.26
2022-09-24T02:36:43.263Z,12.26
2022-09-24T02:39:12.805Z,12.25
2022-09-24T02:41:44.077Z,12.28
2022-09-24T02:44:14.317Z,12.30
2022-09-24T02:46:46.741Z,12.30
2022-09-24T02:49:16.744Z,12.24
2022-09-24T02:51:47.035Z,12.27
2022-09-24T02:54:16.589Z,12.27
2022-09-24T02:56:46.228Z,12.27
2022-09-24T02:59:16.648Z,12.28
2022-09-24T03:01:49.104Z,12.28
2022-09-24T03:04:19.692Z,12.29
2022-09-24T03:06:49.283Z,12.29
2022-09-24T03:09:18.812Z,12.27
2022-09-24T03:11:48.464Z,12.25
2022-09-24T03:14:17.959Z,12.27
2022-09-24T03:16:50.110Z,12.28
2022-09-24T03:19:19.674Z,12.29
2022-09-24T03:21:49.278Z,12.25
2022-09-24T03:24:18.837Z,12.24
2022-09-24T03:26:48.449Z,12.22
2022-09-24T03:29:38.016Z,12.21
2022-09-24T03:32:07.571Z,12.23
2022-09-24T03:34:37.160Z,12.24
2022-09-24T03:37:07.059Z,12.23
2022-09-24T03:39:36.625Z,12.23
2022-09-24T03:42:06.254Z,12.23
2022-09-24T03:44:35.819Z,12.22
2022-09-24T03:47:05.442Z,12.21
2022-09-24T03:49:37.549Z,12.20
2022-09-24T03:52:07.106Z,12.20
2022-09-24T03:54:36.663Z,12.19
2022-09-24T03:57:06.515Z,12.19
2022-09-24T03:59:36.105Z,12.19
2022-09-24T04:02:05.679Z,12.18
2022-09-24T04:04:37.882Z,12.18
2022-09-24T04:07:07.857Z,12.16
2022-09-24T04:09:37.424Z,12.16
2022-09-24T04:12:07.316Z,12.14
2022-09-24T04:14:37.349Z,12.14
2022-09-24T04:17:06.962Z,12.12
2022-09-24T04:19:40.097Z,12.12
2022-09-24T04:22:09.689Z,12.11
2022-09-24T04:24:39.376Z,12.09
2022-09-24T04:27:09.019Z,12.09
2022-09-24T04:29:38.519Z,12.08
2022-09-24T04:32:08.154Z,12.09
2022-09-24T04:34:40.275Z,12.09
2022-09-24T04:37:10.161Z,12.08
2022-09-24T04:39:39.670Z,12.06
2022-09-24T04:42:09.183Z,12.06
2022-09-24T04:44:38.792Z,12.06
2022-09-24T04:47:08.821Z,12.03
2022-09-24T04:49:41.013Z,12.03
2022-09-24T04:52:10.545Z,12.02
2022-09-24T04:54:40.082Z,12.01
2022-09-24T04:57:09.631Z,11.99
2022-09-24T04:59:39.259Z,11.98
2022-09-24T05:02:09.851Z,11.97
2022-09-24T05:04:43.015Z,11.97
2022-09-24T05:07:12.755Z,11.95
2022-09-24T05:09:42.500Z,11.93
2022-09-24T05:12:12.019Z,11.90
2022-09-24T05:14:41.596Z,11.88
2022-09-24T05:17:11.119Z,11.87
2022-09-24T05:19:43.226Z,11.89
2022-09-24T05:22:12.765Z,11.88
2022-09-24T05:24:42.448Z,11.86
2022-09-24T05:27:10.238Z,11.87
2022-09-24T05:29:40.827Z,11.88
2022-09-24T05:32:11.755Z,11.87
2022-09-24T05:34:45.693Z,11.88
2022-09-24T05:37:16.984Z,11.87
2022-09-24T05:39:46.511Z,11.87
2022-09-24T05:42:16.193Z,11.88
2022-09-24T05:44:49.882Z,11.88
2022-09-24T05:47:22.650Z,11.88
2022-09-24T05:49:54.784Z,11.87
2022-09-24T05:52:24.358Z,11.87
2022-09-24T05:54:53.891Z,11.89
2022-09-24T05:57:23.442Z,11.90
2022-09-24T05:59:53.391Z,11.91
2022-09-24T06:02:22.947Z,11.92
2022-09-24T06:04:55.358Z,11.94
2022-09-24T06:07:25.208Z,11.95
2022-09-24T06:09:55.378Z,11.97
2022-09-24T06:12:25.018Z,11.97
2022-09-24T06:14:54.854Z,11.98
2022-09-24T06:17:24.705Z,12.00
2022-09-24T06:19:58.006Z,12.00
2022-09-24T06:22:28.734Z,12.00
2022-09-24T06:24:58.864Z,12.02
2022-09-24T06:27:28.644Z,12.04
2022-09-24T06:29:58.240Z,12.08
2022-09-24T06:32:28.231Z,12.10
2022-09-24T06:35:01.080Z,12.12
2022-09-24T06:37:30.677Z,12.13
2022-09-24T06:40:00.280Z,12.15
2022-09-24T06:42:30.995Z,12.19
2022-09-24T06:45:00.630Z,12.24
2022-09-24T06:47:30.264Z,12.26
2022-09-24T06:50:02.738Z,12.28
2022-09-24T06:52:32.543Z,12.30
2022-09-24T06:55:03.114Z,12.32
2022-09-24T06:57:32.678Z,12.31
2022-09-24T07:00:02.296Z,12.33
2022-09-24T07:02:31.939Z,12.37
2022-09-24T07:05:04.220Z,12.41
2022-09-24T07:07:34.263Z,12.44
2022-09-24T07:10:04.779Z,12.49
2022-09-24T07:12:35.819Z,12.53
2022-09-24T07:15:06.168Z,12.60
2022-09-24T07:17:35.784Z,12.64
2022-09-24T07:20:08.872Z,12.67
2022-09-24T07:22:41.519Z,12.75
2022-09-24T07:25:12.749Z,12.75
2022-09-24T07:27:42.573Z,12.80
2022-09-24T07:30:13.393Z,12.82
2022-09-24T07:32:43.047Z,12.86
2022-09-24T07:35:15.416Z,12.93
2022-09-24T07:37:45.032Z,12.96
2022-09-24T07:40:14.701Z,13.01
2022-09-24T07:42:49.774Z,13.05
2022-09-24T07:45:20.011Z,13.09
2022-09-24T07:47:49.647Z,13.12
2022-09-24T07:50:22.229Z,13.16
2022-09-24T07:52:53.221Z,13.20
2022-09-24T07:55:23.007Z,13.23
2022-09-24T07:57:53.861Z,13.26
2022-09-24T08:00:24.833Z,13.29
2022-09-24T08:02:56.516Z,13.34
2022-09-24T08:05:28.964Z,13.38
2022-09-24T08:07:59.663Z,13.43
2022-09-24T08:10:31.133Z,13.46
2022-09-24T08:13:04.285Z,13.51
2022-09-24T08:15:33.882Z,13.56
2022-09-24T08:18:04.432Z,13.61
2022-09-24T08:20:37.110Z,13.67
2022-09-24T08:23:08.023Z,13.75
2022-09-24T08:25:37.791Z,13.82
2022-09-24T08:28:08.267Z,13.89
2022-09-24T08:30:39.773Z,13.96
2022-09-24T08:33:09.449Z,14.03
2022-09-24T08:35:42.167Z,14.13
2022-09-24T08:38:12.271Z,14.20
2022-09-24T08:40:46.934Z,14.29
2022-09-24T08:43:25.735Z,14.36
2022-09-24T08:46:11.072Z,14.46
2022-09-24T08:48:43.292Z,14.54
2022-09-24T08:51:20.095Z,14.63
2022-09-24T08:53:53.237Z,14.72
2022-09-24T08:56:27.341Z,14.77
2022-09-24T08:59:01.445Z,14.82
2022-09-24T09:01:38.076Z,14.86
2022-09-24T09:04:19.596Z,14.93
2022-09-24T09:06:58.978Z,14.96
2022-09-24T09:09:30.082Z,15.02
2022-09-24T09:12:03.794Z,15.03
2022-09-24T09:14:42.005Z,15.04
2022-09-24T09:17:19.832Z,15.07
2022-09-24T09:19:54.965Z,15.08
2022-09-24T09:22:30.971Z,15.11
2022-09-24T09:25:04.688Z,15.14
2022-09-24T09:27:34.616Z,15.15
2022-09-24T09:30:13.370Z,15.14
2022-09-24T09:32:57.332Z,15.15
2022-09-24T09:35:33.141Z,15.19
2022-09-24T09:38:12.464Z,15.22
2022-09-24T09:40:45.245Z,15.25
2022-09-24T09:43:17.907Z,15.28
2022-09-24T09:45:54.211Z,15.29
2022-09-24T09:48:26.230Z,15.34
2022-09-24T09:50:59.565Z,15.36
2022-09-24T09:53:32.686Z,15.38
2022-09-24T09:56:04.175Z,15.43
2022-09-24T09:58:35.222Z,15.45
2022-09-24T10:01:09.863Z,15.46
2022-09-24T10:03:50.585Z,15.50
2022-09-24T10:06:26.749Z,15.54
2022-09-24T10:09:10.234Z,15.58
2022-09-24T10:11:39.890Z,15.63
2022-09-24T10:14:13.949Z,15.69
2022-09-24T10:16:45.671Z,15.73
2022-09-24T10:19:21.898Z,15.78
2022-09-24T10:21:51.767Z,15.82
2022-09-24T10:24:26.250Z,15.84
2022-09-24T10:26:56.348Z,15.89
2022-09-24T10:29:40.928Z,15.93
2022-09-24T10:32:17.802Z,15.98
2022-09-24T10:34:57.756Z,16.04
2022-09-24T10:37:28.050Z,16.09
2022-09-24T10:40:04.661Z,16.10
2022-09-24T10:42:34.295Z,16.14
2022-09-24T10:45:04.681Z,16.19
2022-09-24T10:47:43.628Z,16.25
2022-09-24T10:50:27.509Z,16.35
2022-09-24T10:53:00.455Z,16.41
2022-09-24T10:55:48.479Z,16.48
2022-09-24T10:58:34.114Z,16.56
2022-09-24T11:01:14.559Z,16.65
2022-09-24T11:04:04.843Z,16.75
2022-09-24T11:06:46.670Z,16.84
2022-09-24T11:09:23.538Z,16.88
2022-09-24T11:12:01.446Z,16.89
2022-09-24T11:14:46.666Z,16.91
2022-09-24T11:17:32.298Z,16.92
2022-09-24T11:20:32.207Z,16.92
2022-09-24T11:23:21.943Z,16.94
2022-09-24T11:25:57.616Z,16.93
2022-09-24T11:28:42.763Z,16.93
2022-09-24T11:31:20.641Z,16.96
2022-09-24T11:34:12.400Z,16.97
2022-09-24T11:36:55.191Z,16.93
2022-09-24T11:39:33.973Z,16.92
2022-09-24T11:42:10.173Z,16.93
2022-09-24T11:45:11.715Z,16.94
2022-09-24T11:47:55.898Z,16.98
2022-09-24T11:50:32.407Z,17.00
2022-09-24T11:53:06.069Z,17.05
2022-09-24T11:55:39.300Z,17.05
2022-09-24T11:58:16.576Z,17.07
2022-09-24T12:00:52.928Z,17.11
2022-09-24T12:03:26.719Z,17.11
2022-09-24T12:06:02.804Z,17.14
2022-09-24T12:08:38.196Z,17.15
2022-09-24T12:11:12.107Z,17.14
2022-09-24T12:13:45.117Z,17.15
2022-09-24T12:16:19.735Z,17.17
2022-09-24T12:18:52.492Z,17.13
2022-09-24T12:21:25.282Z,17.12
2022-09-24T12:24:02.381Z,17.12
2022-09-24T12:26:34.382Z,17.16
2022-09-24T12:29:27.425Z,17.22
2022-09-24T12:32:18.162Z,17.25
2022-09-24T12:34:53.498Z,17.28
2022-09-24T12:37:27.225Z,17.31
2022-09-24T12:40:01.288Z,17.32
2022-09-24T12:42:35.471Z,17.31
2022-09-24T12:45:06.401Z,17.28
2022-09-24T12:47:49.016Z,17.26
2022-09-24T12:50:23.788Z,17.24
2022-09-24T12:52:54.620Z,17.25
2022-09-24T12:55:26.545Z,17.23
2022-09-24T12:57:58.492Z,17.18
2022-09-24T13:00:41.403Z,17.17
2022-09-24T13:03:35.784Z,17.16
2022-09-24T13:06:06.529Z,17.14
2022-09-24T13:08:41.240Z,17.13
2022-09-24T13:11:29.489Z,17.08
2022-09-24T13:14:03.400Z,17.06
2022-09-24T13:16:33.123Z,17.06
2022-09-24T13:19:07.105Z,17.09
2022-09-24T13:21:38.212Z,17.09
2022-09-24T13:24:14.416Z,17.10
2022-09-24T13:26:44.000Z,17.10
2022-09-24T13:29:26.251Z,17.07
2022-09-24T13:31:59.257Z,17.08
2022-09-24T13:34:32.890Z,17.09
2022-09-24T13:37:06.817Z,17.07
2022-09-24T13:39:38.588Z,17.05
2022-09-24T13:42:11.500Z,17.06
2022-09-24T13:44:43.439Z,17.08
2022-09-24T13:47:18.189Z,17.07
2022-09-24T13:49:51.468Z,17.10
2022-09-24T13:52:30.940Z,17.10
2022-09-24T13:55:04.460Z,17.14
2022-09-24T13:57:34.147Z,17.14
2022-09-24T14:00:27.999Z,17.16
2022-09-24T14:03:04.773Z,17.18
2022-09-24T14:05:38.571Z,17.19
2022-09-24T14:08:10.520Z,17.17
2022-09-24T14:10:40.174Z,17.17
2022-09-24T14:13:19.230Z,17.15
2022-09-24T14:15:59.500Z,17.14
2022-09-24T14:18:30.423Z,17.13
2022-09-24T14:21:07.466Z,17.10
2022-09-24T14:23:40.755Z,17.10
2022-09-24T14:26:11.048Z,17.08
2022-09-24T14:28:40.821Z,17.05
2022-09-24T14:31:11.327Z,17.03
2022-09-24T14:33:41.798Z,17.03
2022-09-24T14:36:16.104Z,16.98
2022-09-24T14:38:53.799Z,16.98
2022-09-24T14:41:26.085Z,16.97
2022-09-24T14:43:57.790Z,16.95
2022-09-24T14:46:30.171Z,16.93
2022-09-24T14:49:08.385Z,16.89
2022-09-24T14:51:40.764Z,16.85
2022-09-24T14:54:23.175Z,16.83
2022-09-24T14:56:52.877Z,16.83
2022-09-24T14:59:31.456Z,16.80
2022-09-24T15:02:14.437Z,16.78
2022-09-24T15:04:44.453Z,16.77
2022-09-24T15:07:21.019Z,16.77
2022-09-24T15:09:52.649Z,16.75
2022-09-24T15:12:25.195Z,16.73
2022-09-24T15:15:00.022Z,16.75
2022-09-24T15:17:33.198Z,16.69
2022-09-24T15:20:03.061Z,16.66
2022-09-24T15:22:35.280Z,16.56
2022-09-24T15:25:04.978Z,16.50
2022-09-24T15:27:35.711Z,16.44
2022-09-24T15:30:07.147Z,16.37
2022-09-24T15:32:37.753Z,16.34
2022-09-24T15:35:09.596Z,16.34
2022-09-24T15:37:43.244Z,16.28
2022-09-24T15:40:22.539Z,16.25
2022-09-24T15:42:52.533Z,16.22
2022-09-24T15:45:24.061Z,16.22
2022-09-24T15:47:54.485Z,16.20
2022-09-24T15:50:26.011Z,16.15
2022-09-24T15:53:01.055Z,16.14
2022-09-24T15:55:30.940Z,16.11
2022-09-24T15:58:01.961Z,16.13
2022-09-24T16:00:31.677Z,16.12
2022-09-24T16:03:01.770Z,16.06
2022-09-24T16:05:31.473Z,16.02
2022-09-24T16:08:04.174Z,15.96
2022-09-24T16:10:33.863Z,15.98
2022-09-24T16:13:03.500Z,15.97
2022-09-24T16:15:33.271Z,15.94
2022-09-24T16:18:03.127Z,15.98
2022-09-24T16:20:32.892Z,15.97
2022-09-24T16:23:05.218Z,15.96
2022-09-24T16:25:34.916Z,15.94
2022-09-24T16:28:04.696Z,15.94
2022-09-24T16:30:38.303Z,15.91
2022-09-24T16:33:08.474Z,15.88
2022-09-24T16:35:38.059Z,15.88
2022-09-24T16:38:10.433Z,15.92
2022-09-24T16:40:40.224Z,15.87
2022-09-24T16:43:10.222Z,15.83
2022-09-24T16:45:39.849Z,15.81
2022-09-24T16:48:09.452Z,15.78
2022-09-24T16:50:39.123Z,15.74
2022-09-24T16:53:11.305Z,15.70
2022-09-24T16:55:41.042Z,15.72
2022-09-24T16:58:10.794Z,15.70
2022-09-24T17:00:44.013Z,15.69
2022-09-24T17:03:14.227Z,15.66
2022-09-24T17:05:43.877Z,15.61
2022-09-24T17:08:16.105Z,15.59
2022-09-24T17:10:51.384Z,15.50
2022-09-24T17:13:23.157Z,15.47
2022-09-24T17:15:52.808Z,15.44
2022-09-24T17:18:22.410Z,15.41
2022-09-24T17:20:51.992Z,15.39
2022-09-24T17:23:24.227Z,15.35
2022-09-24T17:25:53.980Z,15.31
2022-09-24T17:28:23.715Z,15.29
2022-09-24T17:30:55.486Z,15.26
2022-09-24T17:33:42.963Z,15.25
2022-09-24T17:36:15.780Z,15.22
2022-09-24T17:38:47.993Z,15.20
2022-09-24T17:41:17.855Z,15.18
2022-09-24T17:43:48.183Z,15.15
2022-09-24T17:46:21.659Z,15.14
2022-09-24T17:48:53.488Z,15.11
2022-09-24T17:51:24.869Z,15.13
2022-09-24T17:53:58.021Z,15.10
2022-09-24T17:56:29.637Z,15.08
2022-09-24T17:58:59.460Z,15.05
2022-09-24T18:01:33.412Z,15.05
2022-09-24T18:04:03.337Z,15.01
2022-09-24T18:06:33.744Z,14.99
2022-09-24T18:09:06.362Z,14.97
2022-09-24T18:11:37.205Z,14.94
2022-09-24T18:14:07.022Z,14.93
2022-09-24T18:16:37.050Z,14.91
2022-09-24T18:19:06.620Z,14.88
2022-09-24T18:21:36.199Z,14.89
2022-09-24T18:24:08.756Z,14.86
2022-09-24T18:26:39.902Z,14.84
2022-09-24T18:29:13.779Z,14.83
2022-09-24T18:31:43.710Z,14.81
2022-09-24T18:34:15.241Z,14.80
2022-09-24T18:36:46.482Z,14.80
2022-09-24T18:39:24.094Z,14.80
2022-09-24T18:41:55.165Z,14.77
2022-09-24T18:44:24.877Z,14.76
2022-09-24T18:46:54.476Z,14.71
2022-09-24T18:49:24.081Z,14.70
2022-09-24T18:51:54.118Z,14.68
2022-09-24T18:54:26.514Z,14.64
2022-09-24T18:56:56.074Z,14.61
2022-09-24T18:59:26.137Z,14.60
2022-09-24T19:01:55.831Z,14.57
2022-09-24T19:04:30.356Z,14.55
2022-09-24T19:07:01.889Z,14.52
2022-09-24T19:09:34.052Z,14.49
2022-09-24T19:12:08.000Z,14.50
2022-09-24T19:14:37.869Z,14.47
2022-09-24T19:17:07.482Z,14.42
2022-09-24T19:19:37.251Z,14.40
2022-09-24T19:22:06.929Z,14.37
2022-09-24T19:24:39.029Z,14.36
2022-09-24T19:27:08.568Z,14.34
2022-09-24T19:29:38.106Z,14.32
2022-09-24T19:32:07.691Z,14.30
2022-09-24T19:34:37.224Z,14.28
2022-09-24T19:37:06.925Z,14.27
2022-09-24T19:39:39.341Z,14.24
2022-09-24T19:42:09.047Z,14.24
2022-09-24T19:44:38.628Z,14.22
2022-09-24T19:47:08.307Z,14.20
2022-09-24T19:49:37.860Z,14.18
2022-09-24T19:52:07.972Z,14.17
2022-09-24T19:54:40.258Z,14.16
2022-09-24T19:57:09.991Z,14.15
2022-09-24T19:59:39.587Z,14.13
2022-09-24T20:02:09.207Z,14.11
2022-09-24T20:04:39.467Z,14.09
2022-09-24T20:07:09.076Z,14.07
2022-09-24T20:09:41.213Z,14.06
2022-09-24T20:12:19.119Z,14.05
2022-09-24T20:14:48.785Z,14.08
2022-09-24T20:17:18.605Z,14.09
2022-09-24T20:19:48.095Z,14.08
2022-09-24T20:22:17.693Z,14.07
2022-09-24T20:24:50.949Z,14.08
2022-09-24T20:27:32.741Z,14.06
2022-09-24T20:30:02.314Z,13.99
2022-09-24T20:32:31.923Z,13.97
2022-09-24T20:35:01.778Z,13.98
2022-09-24T20:37:31.381Z,13.97
2022-09-24T20:40:03.894Z,13.96
2022-09-24T20:42:33.565Z,13.94
2022-09-24T20:45:06.227Z,13.98
2022-09-24T20:47:38.980Z,13.95
2022-09-24T20:50:10.830Z,13.99
2022-09-24T20:52:40.381Z,14.00
2022-09-24T20:55:15.207Z,13.99
2022-09-24T20:57:45.461Z,13.99
2022-09-24T21:00:16.032Z,13.99
2022-09-24T21:02:45.581Z,13.96
2022-09-24T21:05:16.473Z,13.94
2022-09-24T21:07:46.261Z,13.93
2022-09-24T21:10:18.777Z,13.92
2022-09-24T21:12:50.999Z,13.90
2022-09-24T21:15:20.757Z,13.93
2022-09-24T21:18:18.496Z,13.93
2022-09-24T21:20:42.519Z,13.92
2022-09-24T21:23:13.219Z,13.92
2022-09-24T21:26:00.467Z,13.91
2022-09-24T21:28:31.757Z,13.93
2022-09-24T21:31:03.533Z,13.96
2022-09-24T21:33:33.402Z,13.98
2022-09-24T21:36:03.627Z,14.00
2022-09-24T21:38:33.464Z,13.98
2022-09-24T21:41:08.362Z,13.98
2022-09-24T21:43:41.871Z,13.97
2022-09-24T21:46:11.517Z,13.92
2022-09-24T21:48:41.122Z,13.96
2022-09-24T21:51:13.666Z,13.97
2022-09-24T21:53:43.591Z,13.93
2022-09-24T21:56:16.815Z,13.93
2022-09-24T21:58:46.352Z,13.90
2022-09-24T22:01:18.325Z,13.91
2022-09-24T22:03:48.088Z,13.87
2022-09-24T22:06:18.116Z,13.88
2022-09-24T22:08:47.693Z,13.86
2022-09-24T22:11:20.039Z,13.86
2022-09-24T22:13:49.574Z,13.86
2022-09-24T22:16:19.608Z,13.85
2022-09-24T22:18:49.321Z,13.85
2022-09-24T22:21:19.078Z,13.85
2022-09-24T22:23:48.706Z,13.84
2022-09-24T22:26:20.844Z,13.81
2022-09-24T22:28:50.897Z,13.81
2022-09-24T22:31:21.680Z,13.80
2022-09-24T22:34:04.054Z,13.81
2022-09-24T22:36:35.296Z,13.85
2022-09-24T22:39:06.178Z,13.82
2022-09-24T22:41:40.083Z,13.79
2022-09-24T22:44:10.131Z,13.82
2022-09-24T22:46:40.336Z,13.80
2022-09-24T22:49:10.837Z,13.77
2022-09-24T22:51:40.939Z,13.79
2022-09-24T22:54:12.206Z,13.79
2022-09-24T22:56:44.440Z,13.77
2022-09-24T22:59:14.037Z,13.75
2022-09-24T23:01:45.365Z,13.74
2022-09-24T23:04:15.426Z,13.73
2022-09-24T23:06:45.103Z,13.73
2022-09-24T23:09:14.867Z,13.73
2022-09-24T23:11:47.017Z,13.71
2022-09-24T23:14:17.984Z,13.71
2022-09-24T23:16:48.041Z,13.68
2022-09-24T23:19:20.499Z,13.70
2022-09-24T23:21:50.351Z,13.71
2022-09-24T23:24:21.957Z,13.71
2022-09-24T23:26:55.795Z,13.72
2022-09-24T23:29:25.573Z,13.69
2022-09-24T23:31:55.625Z,13.68
2022-09-24T23:34:25.506Z,13.65
2022-09-24T23:36:55.126Z,13.66
2022-09-24T23:39:24.684Z,13.59
2022-09-24T23:41:56.947Z,13.56
2022-09-24T23:44:26.658Z,13.59
2022-09-24T23:46:56.556Z,13.57
2022-09-24T23:49:26.560Z,13.58
2022-09-24T23:51:56.212Z,13.58
2022-09-24T23:54:28.238Z,13.58
2022-09-24T23:57:00.393Z,13.57
2022-09-24T23:59:29.947Z,13.55
